createdAt,value
2018-04-30T00:00:09.216Z,95044.89
2018-04-30T00:02:35.580Z,95042.45
2018-04-30T00:05:01.931Z,95046.23
2018-04-30T00:07:28.282Z,95042.70
2018-04-30T00:09:54.599Z,95055.58
2018-04-30T00:12:20.913Z,95056.70
2018-04-30T00:14:47.318Z,95057.94
2018-04-30T00:17:13.674Z,95061.08
2018-04-30T00:19:40.012Z,95055.83
2018-04-30T00:22:06.321Z,95061.95
2018-04-30T00:24:32.650Z,95051.25
2018-04-30T00:26:58.980Z,95056.59
2018-04-30T00:29:25.360Z,95062.00
2018-04-30T00:31:51.754Z,95056.93
2018-04-30T00:34:18.090Z,95064.95
2018-04-30T00:36:44.444Z,95059.38
2018-04-30T00:39:10.781Z,95059.87
2018-04-30T00:41:37.172Z,95059.20
2018-04-30T00:44:03.504Z,95055.50
2018-04-30T00:46:29.887Z,95059.05
2018-04-30T00:51:28.700Z,95056.27
2018-04-30T00:53:55.031Z,95055.86
2018-04-30T00:56:21.384Z,95062.36
2018-04-30T00:58:47.709Z,95056.35
2018-04-30T01:01:14.016Z,95058.80
2018-04-30T01:03:40.324Z,95052.72
2018-04-30T01:06:06.689Z,95057.31
2018-04-30T01:08:33.304Z,95049.55
2018-04-30T01:10:59.637Z,95048.46
2018-04-30T01:13:26.020Z,95035.52
2018-04-30T01:15:52.428Z,95046.22
2018-04-30T01:18:18.747Z,95042.50
2018-04-30T01:20:45.072Z,95036.52
2018-04-30T01:23:11.399Z,95042.80
2018-04-30T01:25:37.736Z,95034.62
2018-04-30T01:28:04.048Z,95035.69
2018-04-30T01:30:30.387Z,95028.77
2018-04-30T01:32:56.786Z,95030.70
2018-04-30T01:35:23.115Z,95024.16
2018-04-30T01:37:49.464Z,95035.55
2018-04-30T01:40:15.785Z,95033.80
2018-04-30T01:42:42.103Z,95040.95
2018-04-30T01:45:08.425Z,95027.06
2018-04-30T01:47:34.749Z,95035.98
2018-04-30T01:50:01.125Z,95035.23
2018-04-30T01:52:27.491Z,95037.50
2018-04-30T01:54:53.817Z,95040.02
2018-04-30T01:57:20.141Z,95041.54
2018-04-30T01:59:46.585Z,95045.87
2018-04-30T02:02:12.919Z,95030.76
2018-04-30T02:04:39.435Z,95033.42
2018-04-30T02:07:06.177Z,95030.28
2018-04-30T02:09:32.554Z,95030.86
2018-04-30T02:14:31.160Z,95017.09
2018-04-30T02:16:57.597Z,95029.08
2018-04-30T02:19:23.917Z,95023.59
2018-04-30T02:21:50.248Z,95022.52
2018-04-30T02:24:16.645Z,95023.09
2018-04-30T02:26:43.013Z,95024.98
2018-04-30T02:29:09.457Z,95030.66
2018-04-30T02:31:35.985Z,95011.53
2018-04-30T02:34:02.518Z,95027.87
2018-04-30T02:36:28.865Z,95016.77
2018-04-30T02:38:55.204Z,95027.36
2018-04-30T02:41:21.677Z,95026.14
2018-04-30T02:43:48.016Z,95022.73
2018-04-30T02:46:14.393Z,95023.80
2018-04-30T02:48:40.733Z,95005.78
2018-04-30T02:51:07.165Z,95016.59
2018-04-30T02:53:33.486Z,95018.26
2018-04-30T02:55:59.891Z,95025.67
2018-04-30T02:58:26.337Z,95022.88
2018-04-30T03:00:52.758Z,95029.07
2018-04-30T03:03:19.135Z,95032.77
2018-04-30T03:05:45.517Z,95030.22
2018-04-30T03:08:11.935Z,95028.66
2018-04-30T03:10:38.308Z,95022.78
2018-04-30T03:13:04.702Z,95026.38
2018-04-30T03:15:31.063Z,95022.68
2018-04-30T03:17:57.536Z,95024.40
2018-04-30T03:20:23.893Z,95020.70
2018-04-30T03:22:50.261Z,95014.25
2018-04-30T03:25:16.769Z,95026.19
2018-04-30T03:27:43.161Z,95025.02
2018-04-30T03:30:09.540Z,95021.29
2018-04-30T03:32:35.946Z,95027.61
2018-04-30T03:35:02.373Z,95029.59
2018-04-30T03:37:28.722Z,95025.95
2018-04-30T03:39:55.111Z,95033.57
2018-04-30T03:42:21.747Z,95022.72
2018-04-30T03:44:48.069Z,95027.61
2018-04-30T03:47:14.440Z,95029.00
2018-04-30T03:49:41.001Z,95035.56
2018-04-30T03:52:07.353Z,95044.48
2018-04-30T03:54:33.696Z,95044.16
2018-04-30T03:57:00.081Z,95039.42
2018-04-30T03:59:26.602Z,95047.16
2018-04-30T04:01:52.949Z,95047.03
2018-04-30T04:04:19.392Z,95056.42
2018-04-30T04:06:45.749Z,95046.98
2018-04-30T04:09:12.133Z,95043.69
2018-04-30T04:11:38.560Z,95046.65
2018-04-30T04:14:04.991Z,95048.94
2018-04-30T04:16:31.375Z,95045.45
2018-04-30T04:18:57.906Z,95044.47
2018-04-30T04:21:24.277Z,95054.98
2018-04-30T04:23:50.984Z,95046.23
2018-04-30T04:26:17.696Z,95055.66
2018-04-30T04:28:44.077Z,95055.34
2018-04-30T04:31:10.422Z,95040.63
2018-04-30T04:33:37.244Z,95047.06
2018-04-30T04:36:03.677Z,95047.08
2018-04-30T04:38:30.013Z,95053.81
2018-04-30T04:40:56.420Z,95058.08
2018-04-30T04:43:22.741Z,95059.52
2018-04-30T04:45:49.105Z,95063.33
2018-04-30T04:48:15.564Z,95058.70
2018-04-30T04:50:41.936Z,95058.49
2018-04-30T04:53:08.250Z,95055.17
2018-04-30T04:55:34.610Z,95058.87
2018-04-30T04:58:00.955Z,95056.29
2018-04-30T05:00:27.344Z,95068.42
2018-04-30T05:02:53.700Z,95064.86
2018-04-30T05:05:20.058Z,95064.19
2018-04-30T05:07:46.420Z,95064.28
2018-04-30T05:10:12.774Z,95069.03
2018-04-30T05:12:39.121Z,95060.27
2018-04-30T05:15:05.433Z,95078.47
2018-04-30T05:17:31.804Z,95071.25
2018-04-30T05:19:58.292Z,95056.22
2018-04-30T05:22:24.665Z,95070.38
2018-04-30T05:24:51.028Z,95076.98
2018-04-30T05:27:17.406Z,95073.47
2018-04-30T05:29:43.792Z,95068.38
2018-04-30T05:32:10.172Z,95074.56
2018-04-30T05:34:36.510Z,95043.15
2018-04-30T05:37:02.869Z,95061.86
2018-04-30T05:39:29.236Z,95055.11
2018-04-30T05:41:55.557Z,95062.75
2018-04-30T05:44:22.028Z,95055.63
2018-04-30T05:46:48.356Z,95074.12
2018-04-30T05:49:14.672Z,95069.00
2018-04-30T05:51:41.032Z,95065.86
2018-04-30T05:54:07.405Z,95074.00
2018-04-30T05:56:34.026Z,95075.21
2018-04-30T05:59:00.425Z,95065.21
2018-04-30T06:01:26.787Z,95080.64
2018-04-30T06:03:53.189Z,95076.69
2018-04-30T06:06:19.625Z,95075.95
2018-04-30T06:08:46.074Z,95068.90
2018-04-30T06:11:12.431Z,95081.03
2018-04-30T06:13:38.784Z,95086.68
2018-04-30T06:16:05.180Z,95079.59
2018-04-30T06:18:31.559Z,95080.93
2018-04-30T06:20:57.982Z,95079.89
2018-04-30T06:23:24.334Z,95056.74
2018-04-30T06:25:50.741Z,95079.64
2018-04-30T06:28:17.140Z,95073.54
2018-04-30T06:30:43.479Z,95084.80
2018-04-30T06:33:09.844Z,95087.08
2018-04-30T06:35:36.196Z,95069.56
2018-04-30T06:38:02.640Z,95070.49
2018-04-30T06:40:29.069Z,95070.84
2018-04-30T06:42:55.470Z,95081.14
2018-04-30T06:45:21.872Z,95072.91
2018-04-30T06:47:48.228Z,95072.23
2018-04-30T06:50:14.571Z,95056.31
2018-04-30T06:52:40.953Z,95072.19
2018-04-30T06:55:07.316Z,95067.43
2018-04-30T06:57:33.692Z,95043.81
2018-04-30T07:00:00.078Z,95057.70
2018-04-30T07:02:26.415Z,95056.63
2018-04-30T07:04:52.847Z,95058.58
2018-04-30T07:07:19.254Z,95056.25
2018-04-30T07:09:45.691Z,95014.06
2018-04-30T07:12:12.052Z,95031.08
2018-04-30T07:14:38.420Z,95049.71
2018-04-30T07:17:04.790Z,95053.05
2018-04-30T07:19:31.124Z,95043.02
2018-04-30T07:21:57.500Z,95044.86
2018-04-30T07:24:23.886Z,95033.94
2018-04-30T07:26:50.877Z,95038.64
2018-04-30T07:29:17.349Z,95028.70
2018-04-30T07:31:43.747Z,95029.83
2018-04-30T07:34:10.114Z,95035.94
2018-04-30T07:36:36.451Z,95034.84
2018-04-30T07:39:02.881Z,95022.45
2018-04-30T07:41:29.162Z,95036.70
2018-04-30T07:43:55.544Z,95033.20
2018-04-30T07:46:21.886Z,95035.48
2018-04-30T07:48:48.291Z,95032.42
2018-04-30T07:51:14.658Z,95029.05
2018-04-30T07:53:41.113Z,95015.91
2018-04-30T07:56:07.457Z,95025.72
2018-04-30T07:58:33.853Z,95012.22
2018-04-30T08:01:00.296Z,95021.25
2018-04-30T08:03:26.684Z,95013.33
2018-04-30T08:05:53.051Z,95023.92
2018-04-30T08:08:19.503Z,95010.72
2018-04-30T08:10:45.836Z,94988.03
2018-04-30T08:13:12.257Z,95001.97
2018-04-30T08:15:38.630Z,95003.00
2018-04-30T08:18:05.003Z,95003.62
2018-04-30T08:20:31.404Z,95003.76
2018-04-30T08:22:57.801Z,95006.83
2018-04-30T08:25:24.232Z,94997.98
2018-04-30T08:27:50.649Z,95004.91
2018-04-30T08:30:17.013Z,94994.39
2018-04-30T08:32:43.393Z,94980.02
2018-04-30T08:35:09.773Z,94965.84
2018-04-30T08:37:36.144Z,94977.84
2018-04-30T08:40:02.487Z,94984.38
2018-04-30T08:42:28.864Z,94975.04
2018-04-30T08:44:55.231Z,94975.05
2018-04-30T08:47:21.861Z,94955.08
2018-04-30T08:49:48.255Z,94968.03
2018-04-30T08:52:14.644Z,94954.73
2018-04-30T08:54:41.020Z,94959.65
2018-04-30T08:57:07.380Z,94954.51
2018-04-30T08:59:33.820Z,94961.48
2018-04-30T09:02:00.191Z,94970.73
2018-04-30T09:04:26.607Z,94944.58
2018-04-30T09:06:53.187Z,94952.17
2018-04-30T09:09:19.664Z,94956.16
2018-04-30T09:11:46.150Z,94953.27
2018-04-30T09:14:12.591Z,94959.86
2018-04-30T09:16:39.233Z,94955.02
2018-04-30T09:19:05.769Z,94944.33
2018-04-30T09:21:32.176Z,94946.30
2018-04-30T09:23:58.713Z,94945.41
2018-04-30T09:26:25.105Z,94940.24
2018-04-30T09:28:51.605Z,94929.56
2018-04-30T09:31:18.116Z,94937.14
2018-04-30T09:33:44.533Z,94932.83
2018-04-30T09:36:10.903Z,94934.53
2018-04-30T09:38:37.400Z,94926.24
2018-04-30T09:41:04.134Z,94926.98
2018-04-30T09:43:30.506Z,94927.80
2018-04-30T09:45:56.965Z,94920.42
2018-04-30T09:48:23.450Z,94915.47
2018-04-30T09:50:49.908Z,94897.84
2018-04-30T09:53:16.316Z,94915.11
2018-04-30T09:55:42.886Z,94910.63
2018-04-30T09:58:09.393Z,94888.20
2018-04-30T10:00:35.855Z,94903.64
2018-04-30T10:03:02.203Z,94905.98
2018-04-30T10:05:28.548Z,94909.70
2018-04-30T10:07:54.904Z,94892.74
2018-04-30T10:10:21.236Z,94893.28
2018-04-30T10:12:47.592Z,94887.36
2018-04-30T10:15:13.995Z,94880.08
2018-04-30T10:17:40.372Z,94896.89
2018-04-30T10:20:06.797Z,94880.05
2018-04-30T10:22:33.201Z,94877.55
2018-04-30T10:24:59.581Z,94887.14
2018-04-30T10:27:26.012Z,94885.27
2018-04-30T10:29:52.349Z,94881.92
2018-04-30T10:32:18.672Z,94881.80
2018-04-30T10:34:45.056Z,94874.66
2018-04-30T10:37:11.400Z,94877.48
2018-04-30T10:39:37.827Z,94862.48
2018-04-30T10:42:04.199Z,94865.41
2018-04-30T10:44:30.525Z,94849.10
2018-04-30T10:46:56.888Z,94836.09
2018-04-30T10:49:23.251Z,94857.53
2018-04-30T10:51:49.688Z,94839.92
2018-04-30T10:54:16.035Z,94851.38
2018-04-30T10:56:42.494Z,94848.53
2018-04-30T10:59:08.834Z,94846.05
2018-04-30T11:01:35.218Z,94851.24
2018-04-30T11:04:01.606Z,94846.80
2018-04-30T11:06:27.953Z,94852.86
2018-04-30T11:08:54.320Z,94842.62
2018-04-30T11:11:20.706Z,94845.34
2018-04-30T11:13:47.050Z,94846.53
2018-04-30T11:16:13.413Z,94828.11
2018-04-30T11:18:39.815Z,94843.38
2018-04-30T11:21:06.258Z,94841.97
2018-04-30T11:23:32.665Z,94832.75
2018-04-30T11:25:59.073Z,94835.94
2018-04-30T11:28:25.446Z,94826.63
2018-04-30T11:30:51.815Z,94837.11
2018-04-30T11:33:18.149Z,94826.25
2018-04-30T11:35:44.528Z,94825.08
2018-04-30T11:38:10.889Z,94826.78
2018-04-30T11:40:37.235Z,94810.56
2018-04-30T11:43:03.694Z,94821.00
2018-04-30T11:45:30.094Z,94819.74
2018-04-30T11:47:56.543Z,94817.47
2018-04-30T11:50:22.936Z,94815.64
2018-04-30T11:52:49.408Z,94810.69
2018-04-30T11:55:15.794Z,94808.28
2018-04-30T11:57:42.142Z,94812.13
2018-04-30T12:00:08.569Z,94808.09
2018-04-30T12:02:34.966Z,94793.87
2018-04-30T12:05:01.460Z,94800.35
2018-04-30T12:07:27.769Z,94790.34
2018-04-30T12:09:54.172Z,94774.09
2018-04-30T12:12:20.519Z,94790.87
2018-04-30T12:14:46.889Z,94787.41
2018-04-30T12:17:13.251Z,94775.82
2018-04-30T12:19:39.724Z,94770.64
2018-04-30T12:22:06.209Z,94778.58
2018-04-30T12:24:32.647Z,94782.05
2018-04-30T12:26:59.010Z,94779.11
2018-04-30T12:29:25.420Z,94774.41
2018-04-30T12:31:51.953Z,94765.94
2018-04-30T12:34:18.364Z,94765.13
2018-04-30T12:36:44.724Z,94772.83
2018-04-30T12:39:11.832Z,94758.75
2018-04-30T12:41:38.330Z,94756.44
2018-04-30T12:44:04.776Z,94763.93
2018-04-30T12:46:31.173Z,94759.20
2018-04-30T12:48:57.628Z,94758.27
2018-04-30T12:51:23.987Z,94756.92
2018-04-30T12:53:50.396Z,94746.09
2018-04-30T12:56:16.834Z,94754.57
2018-04-30T12:58:43.181Z,94744.52
2018-04-30T13:01:09.559Z,94751.88
2018-04-30T13:03:35.953Z,94748.99
2018-04-30T13:06:02.290Z,94749.51
2018-04-30T13:08:28.693Z,94750.28
2018-04-30T13:10:55.122Z,94749.72
2018-04-30T13:13:21.480Z,94751.05
2018-04-30T13:15:47.950Z,94756.17
2018-04-30T13:18:14.325Z,94749.30
2018-04-30T13:20:40.757Z,94751.52
2018-04-30T13:23:07.129Z,94752.28
2018-04-30T13:25:33.582Z,94739.11
2018-04-30T13:28:00.300Z,94727.99
2018-04-30T13:30:26.671Z,94733.74
2018-04-30T13:32:53.078Z,94737.10
2018-04-30T13:35:19.431Z,94725.56
2018-04-30T13:37:45.859Z,94735.88
2018-04-30T13:40:12.236Z,94730.45
2018-04-30T13:42:38.674Z,94723.44
2018-04-30T13:45:05.165Z,94728.98
2018-04-30T13:47:31.572Z,94729.00
2018-04-30T13:49:59.268Z,94730.68
2018-04-30T13:52:25.648Z,94718.11
2018-04-30T13:54:52.037Z,94722.70
2018-04-30T13:57:18.821Z,94721.45
2018-04-30T13:59:45.192Z,94728.17
2018-04-30T14:02:11.538Z,94733.98
2018-04-30T14:04:37.912Z,94713.58
2018-04-30T14:07:04.263Z,94721.87
2018-04-30T14:09:30.675Z,94713.20
2018-04-30T14:11:57.031Z,94705.32
2018-04-30T14:14:23.378Z,94714.20
2018-04-30T14:16:49.751Z,94722.81
2018-04-30T14:19:16.259Z,94721.58
2018-04-30T14:21:42.579Z,94709.91
2018-04-30T14:24:09.225Z,94715.14
2018-04-30T14:26:35.617Z,94690.04
2018-04-30T14:29:01.963Z,94713.03
2018-04-30T14:31:28.399Z,94713.20
2018-04-30T14:33:54.784Z,94714.11
2018-04-30T14:36:21.289Z,94709.05
2018-04-30T14:38:47.604Z,94709.44
2018-04-30T14:41:14.013Z,94714.45
2018-04-30T14:43:40.419Z,94723.33
2018-04-30T14:46:06.773Z,94718.21
2018-04-30T14:48:33.132Z,94726.98
2018-04-30T14:50:59.502Z,94722.58
2018-04-30T14:53:25.916Z,94708.80
2018-04-30T14:55:52.284Z,94715.04
2018-04-30T14:58:18.838Z,94703.67
2018-04-30T15:00:45.236Z,94709.14
2018-04-30T15:03:11.578Z,94696.14
2018-04-30T15:05:37.908Z,94710.22
2018-04-30T15:08:04.231Z,94717.18
2018-04-30T15:10:30.588Z,94706.19
2018-04-30T15:12:56.908Z,94705.84
2018-04-30T15:15:23.228Z,94695.19
2018-04-30T15:17:49.634Z,94705.67
2018-04-30T15:20:16.116Z,94706.57
2018-04-30T15:22:42.453Z,94703.91
2018-04-30T15:25:08.839Z,94692.25
2018-04-30T15:27:35.169Z,94704.52
2018-04-30T15:30:01.495Z,94705.50
2018-04-30T15:32:27.872Z,94700.33
2018-04-30T15:34:54.192Z,94696.33
2018-04-30T15:37:20.588Z,94699.72
2018-04-30T15:39:46.971Z,94704.48
2018-04-30T15:42:13.311Z,94695.22
2018-04-30T15:44:39.636Z,94701.22
2018-04-30T15:47:06.026Z,94695.95
2018-04-30T15:49:32.340Z,94694.78
2018-04-30T15:51:58.697Z,94695.52
2018-04-30T15:54:25.054Z,94690.20
2018-04-30T15:56:51.387Z,94674.27
2018-04-30T15:59:17.705Z,94691.28
2018-04-30T16:01:44.029Z,94682.66
2018-04-30T16:04:10.433Z,94692.86
2018-04-30T16:06:36.762Z,94699.03
2018-04-30T16:09:03.102Z,94699.56
2018-04-30T16:11:29.428Z,94701.88
2018-04-30T16:13:55.861Z,94702.04
2018-04-30T16:16:22.171Z,94689.67
2018-04-30T16:18:48.504Z,94708.10
2018-04-30T16:21:14.857Z,94703.44
2018-04-30T16:23:41.179Z,94712.99
2018-04-30T16:26:07.500Z,94706.41
2018-04-30T16:28:35.021Z,94715.45
2018-04-30T16:31:01.388Z,94716.36
2018-04-30T16:33:27.751Z,94719.42
2018-04-30T16:35:54.085Z,94724.72
2018-04-30T16:38:20.409Z,94722.91
2018-04-30T16:40:46.905Z,94725.19
2018-04-30T16:43:13.226Z,94734.30
2018-04-30T16:45:39.553Z,94720.23
2018-04-30T16:48:05.943Z,94734.13
2018-04-30T16:50:32.264Z,94742.58
2018-04-30T16:52:58.639Z,94743.52
2018-04-30T16:55:24.970Z,94743.09
2018-04-30T16:57:51.300Z,94745.09
2018-04-30T17:00:17.629Z,94753.19
2018-04-30T17:02:43.952Z,94762.47
2018-04-30T17:05:10.269Z,94755.59
2018-04-30T17:07:36.684Z,94753.26
2018-04-30T17:10:03.152Z,94751.31
2018-04-30T17:12:29.584Z,94755.69
2018-04-30T17:14:55.903Z,94750.14
2018-04-30T17:17:22.262Z,94742.00
2018-04-30T17:19:48.687Z,94762.28
2018-04-30T17:22:15.041Z,94756.77
2018-04-30T17:24:41.357Z,94760.36
2018-04-30T17:27:07.766Z,94768.34
2018-04-30T17:29:34.187Z,94763.58
2018-04-30T17:32:00.481Z,94772.81
2018-04-30T17:34:26.932Z,94763.72
2018-04-30T17:36:53.266Z,94772.28
2018-04-30T17:39:19.625Z,94785.88
2018-04-30T17:41:45.956Z,94785.28
2018-04-30T17:44:12.281Z,94784.52
2018-04-30T17:46:38.617Z,94791.05
2018-04-30T17:49:04.952Z,94792.69
2018-04-30T17:51:31.305Z,94783.45
2018-04-30T17:53:57.617Z,94782.76
2018-04-30T17:56:23.980Z,94781.25
2018-04-30T17:58:50.331Z,94779.41
2018-04-30T18:01:16.711Z,94781.80
2018-04-30T18:03:43.026Z,94795.00
2018-04-30T18:06:09.360Z,94773.29
2018-04-30T18:08:35.699Z,94781.40
2018-04-30T18:11:02.043Z,94790.99
2018-04-30T18:13:28.365Z,94790.20
2018-04-30T18:15:54.692Z,94785.53
2018-04-30T18:18:21.077Z,94790.71
2018-04-30T18:20:47.408Z,94787.77
2018-04-30T18:23:13.765Z,94790.70
2018-04-30T18:25:40.082Z,94804.18
2018-04-30T18:28:06.433Z,94804.84
2018-04-30T18:30:32.759Z,94803.20
2018-04-30T18:32:59.151Z,94805.34
2018-04-30T18:35:25.480Z,94805.08
2018-04-30T18:37:52.856Z,94811.34
2018-04-30T18:40:19.177Z,94811.27
2018-04-30T18:45:18.159Z,94817.99
2018-04-30T18:47:44.488Z,94817.86
2018-04-30T18:50:10.825Z,94819.31
2018-04-30T18:52:37.148Z,94820.39
2018-04-30T18:55:03.468Z,94823.39
2018-04-30T18:57:29.825Z,94823.33
2018-04-30T18:59:56.172Z,94815.50
2018-04-30T19:02:22.496Z,94830.80
2018-04-30T19:04:48.807Z,94819.11
2018-04-30T19:07:15.195Z,94813.06
2018-04-30T19:09:41.512Z,94827.22
2018-04-30T19:12:09.645Z,94802.50
2018-04-30T19:14:35.968Z,94826.05
2018-04-30T19:17:02.657Z,94823.66
2018-04-30T19:19:29.033Z,94830.95
2018-04-30T19:21:55.489Z,94832.39
2018-04-30T19:24:21.837Z,94826.32
2018-04-30T19:26:48.152Z,94832.38
2018-04-30T19:29:15.332Z,94833.41
2018-04-30T19:31:41.777Z,94827.77
2018-04-30T19:34:08.029Z,94829.47
2018-04-30T19:36:34.360Z,94840.36
2018-04-30T19:39:00.685Z,94837.23
2018-04-30T19:41:26.996Z,94812.63
2018-04-30T19:43:53.322Z,94834.64
2018-04-30T19:46:19.657Z,94847.28
2018-04-30T19:48:46.688Z,94835.16
2018-04-30T19:51:13.007Z,94847.15
2018-04-30T19:53:39.391Z,94842.99
2018-04-30T19:56:05.721Z,94858.23
2018-04-30T19:58:32.082Z,94858.09
2018-04-30T20:00:58.424Z,94861.86
2018-04-30T20:03:24.816Z,94862.52
2018-04-30T20:05:51.154Z,94864.72
2018-04-30T20:08:17.496Z,94860.41
2018-04-30T20:10:43.817Z,94868.17
2018-04-30T20:13:10.192Z,94869.46
2018-04-30T20:15:36.517Z,94868.97
2018-04-30T20:18:02.832Z,94872.84
2018-04-30T20:20:29.236Z,94868.48
2018-04-30T20:22:55.531Z,94867.25
2018-04-30T20:25:21.849Z,94873.95
2018-04-30T20:27:49.520Z,94873.23
2018-04-30T20:30:15.892Z,94869.37
2018-04-30T20:32:42.301Z,94874.34
2018-04-30T20:35:08.576Z,94877.83
2018-04-30T20:37:34.890Z,94871.25
2018-04-30T20:40:01.226Z,94873.70
2018-04-30T20:42:27.650Z,94866.88
2018-04-30T20:44:54.040Z,94864.67
2018-04-30T20:47:20.352Z,94843.85
2018-04-30T20:49:46.663Z,94863.53
2018-04-30T20:52:14.691Z,94860.73
2018-04-30T20:54:41.006Z,94860.27
2018-04-30T20:57:07.352Z,94866.04
2018-04-30T20:59:33.721Z,94855.16
2018-04-30T21:02:00.057Z,94870.19
2018-04-30T21:04:26.402Z,94869.03
2018-04-30T21:06:52.744Z,94869.58
2018-04-30T21:09:19.073Z,94876.65
2018-04-30T21:11:45.391Z,94875.10
2018-04-30T21:14:11.718Z,94876.52
2018-04-30T21:16:38.148Z,94866.33
2018-04-30T21:19:04.526Z,94865.21
2018-04-30T21:21:30.921Z,94873.23
2018-04-30T21:23:57.409Z,94869.84
2018-04-30T21:26:23.748Z,94879.17
2018-04-30T21:28:50.069Z,94880.94
2018-04-30T21:31:16.401Z,94878.82
2018-04-30T21:33:42.766Z,94880.67
2018-04-30T21:36:09.104Z,94880.38
2018-04-30T21:38:35.494Z,94879.63
2018-04-30T21:41:01.821Z,94886.30
2018-04-30T21:43:28.157Z,94883.84
2018-04-30T21:45:54.720Z,94885.68
2018-04-30T21:48:21.039Z,94879.84
2018-04-30T21:50:47.436Z,94894.12
2018-04-30T21:53:13.752Z,94891.86
2018-04-30T21:55:40.128Z,94893.77
2018-04-30T21:58:06.513Z,94895.33
2018-04-30T22:00:32.840Z,94906.15
2018-04-30T22:02:59.724Z,94907.03
2018-04-30T22:05:26.044Z,94902.41
2018-04-30T22:07:52.392Z,94901.56
2018-04-30T22:10:18.710Z,94898.24
2018-04-30T22:12:45.021Z,94912.48
2018-04-30T22:15:11.333Z,94910.84
2018-04-30T22:17:37.667Z,94910.89
2018-04-30T22:22:36.788Z,94911.30
2018-04-30T22:25:03.127Z,94916.59
2018-04-30T22:27:29.439Z,94918.20
2018-04-30T22:29:55.762Z,94910.81
2018-04-30T22:32:22.084Z,94919.13
2018-04-30T22:34:48.400Z,94886.52
2018-04-30T22:37:14.714Z,94916.30
2018-04-30T22:39:41.064Z,94907.52
2018-04-30T22:42:07.384Z,94910.88
2018-04-30T22:44:33.704Z,94912.58
2018-04-30T22:47:00.012Z,94902.27
2018-04-30T22:49:26.632Z,94907.85
2018-04-30T22:51:52.957Z,94908.50
2018-04-30T22:54:19.273Z,94905.97
2018-04-30T22:56:45.595Z,94895.96
2018-04-30T22:59:11.971Z,94891.12
2018-04-30T23:01:38.584Z,94879.23
2018-04-30T23:04:04.906Z,94882.41
2018-04-30T23:06:31.243Z,94895.96
2018-04-30T23:08:57.579Z,94899.34
2018-04-30T23:11:23.940Z,94892.35
2018-04-30T23:13:50.532Z,94893.30
2018-04-30T23:16:16.848Z,94890.09
2018-04-30T23:18:43.168Z,94887.16
2018-04-30T23:21:09.632Z,94880.17
2018-04-30T23:23:35.948Z,94884.81
2018-04-30T23:26:02.274Z,94881.34
2018-04-30T23:28:28.612Z,94878.15
2018-04-30T23:30:54.931Z,94886.39
2018-04-30T23:33:21.249Z,94878.20
2018-04-30T23:35:47.587Z,94875.30
2018-04-30T23:38:13.922Z,94880.62
2018-04-30T23:40:40.243Z,94875.98
2018-04-30T23:43:06.607Z,94881.55
2018-04-30T23:45:33.101Z,94875.07
2018-04-30T23:47:59.418Z,94881.00
2018-04-30T23:50:25.763Z,94885.14
2018-04-30T23:52:52.139Z,94869.20
2018-04-30T23:55:18.449Z,94890.09
2018-04-30T23:57:44.816Z,94881.41
